sensor_id;sensor_type;location;lat;lon;timestamp;temperature;humidity
45283;DHT22;31023;44.994;1.796;2022-08-25T00:01:46;23.20;83.50
45283;DHT22;31023;44.994;1.796;2022-08-25T00:04:13;23.30;82.90
45283;DHT22;31023;44.994;1.796;2022-08-25T00:06:39;23.30;82.90
45283;DHT22;31023;44.994;1.796;2022-08-25T00:09:05;23.30;82.30
45283;DHT22;31023;44.994;1.796;2022-08-25T00:11:32;23.30;82.90
45283;DHT22;31023;44.994;1.796;2022-08-25T00:13:59;23.10;83.30
45283;DHT22;31023;44.994;1.796;2022-08-25T00:16:25;23.10;83.60
45283;DHT22;31023;44.994;1.796;2022-08-25T00:18:52;23.00;84.10
45283;DHT22;31023;44.994;1.796;2022-08-25T00:21:18;22.90;85.10
45283;DHT22;31023;44.994;1.796;2022-08-25T00:23:44;22.80;86.00
45283;DHT22;31023;44.994;1.796;2022-08-25T00:26:10;22.70;86.50
45283;DHT22;31023;44.994;1.796;2022-08-25T00:28:36;22.60;87.00
45283;DHT22;31023;44.994;1.796;2022-08-25T00:31:02;22.60;87.10
45283;DHT22;31023;44.994;1.796;2022-08-25T00:33:28;22.70;87.00
45283;DHT22;31023;44.994;1.796;2022-08-25T00:35:55;22.60;87.30
45283;DHT22;31023;44.994;1.796;2022-08-25T00:38:21;22.60;87.80
45283;DHT22;31023;44.994;1.796;2022-08-25T00:40:47;22.50;88.30
45283;DHT22;31023;44.994;1.796;2022-08-25T00:46:42;22.40;89.60
45283;DHT22;31023;44.994;1.796;2022-08-25T00:49:26;22.30;90.20
45283;DHT22;31023;44.994;1.796;2022-08-25T00:51:55;22.20;90.50
45283;DHT22;31023;44.994;1.796;2022-08-25T00:54:24;22.10;91.00
45283;DHT22;31023;44.994;1.796;2022-08-25T00:56:51;22.00;91.20
45283;DHT22;31023;44.994;1.796;2022-08-25T00:59:18;22.10;91.40
45283;DHT22;31023;44.994;1.796;2022-08-25T01:01:44;22.00;91.60
45283;DHT22;31023;44.994;1.796;2022-08-25T01:04:10;22.00;91.60
45283;DHT22;31023;44.994;1.796;2022-08-25T01:06:36;22.00;91.80
45283;DHT22;31023;44.994;1.796;2022-08-25T01:09:03;22.00;91.90
45283;DHT22;31023;44.994;1.796;2022-08-25T01:11:29;22.10;92.20
45283;DHT22;31023;44.994;1.796;2022-08-25T01:13:55;22.00;92.00
45283;DHT22;31023;44.994;1.796;2022-08-25T01:16:21;22.00;91.90
45283;DHT22;31023;44.994;1.796;2022-08-25T01:18:51;22.00;91.80
45283;DHT22;31023;44.994;1.796;2022-08-25T01:21:18;22.10;91.80
45283;DHT22;31023;44.994;1.796;2022-08-25T01:23:45;22.00;92.00
45283;DHT22;31023;44.994;1.796;2022-08-25T01:26:21;22.00;91.90
45283;DHT22;31023;44.994;1.796;2022-08-25T01:28:47;22.00;92.10
45283;DHT22;31023;44.994;1.796;2022-08-25T01:31:33;21.90;92.30
45283;DHT22;31023;44.994;1.796;2022-08-25T01:33:59;21.90;92.60
45283;DHT22;31023;44.994;1.796;2022-08-25T01:36:26;21.90;92.60
45283;DHT22;31023;44.994;1.796;2022-08-25T01:38:52;21.80;93.10
45283;DHT22;31023;44.994;1.796;2022-08-25T01:41:25;21.70;93.50
45283;DHT22;31023;44.994;1.796;2022-08-25T01:43:54;21.70;93.40
45283;DHT22;31023;44.994;1.796;2022-08-25T01:46:20;21.80;93.50
45283;DHT22;31023;44.994;1.796;2022-08-25T01:48:46;21.70;93.60
45283;DHT22;31023;44.994;1.796;2022-08-25T01:51:15;21.70;93.60
45283;DHT22;31023;44.994;1.796;2022-08-25T01:53:40;21.70;93.60
45283;DHT22;31023;44.994;1.796;2022-08-25T01:56:12;21.70;93.80
45283;DHT22;31023;44.994;1.796;2022-08-25T01:58:40;21.60;93.90
45283;DHT22;31023;44.994;1.796;2022-08-25T02:01:07;21.60;94.20
45283;DHT22;31023;44.994;1.796;2022-08-25T02:03:35;21.60;94.20
45283;DHT22;31023;44.994;1.796;2022-08-25T02:06:02;21.60;94.00
45283;DHT22;31023;44.994;1.796;2022-08-25T02:08:27;21.70;93.90
45283;DHT22;31023;44.994;1.796;2022-08-25T02:10:53;21.70;93.70
45283;DHT22;31023;44.994;1.796;2022-08-25T02:13:20;21.70;93.80
45283;DHT22;31023;44.994;1.796;2022-08-25T02:15:46;21.70;93.80
45283;DHT22;31023;44.994;1.796;2022-08-25T02:18:12;21.70;93.80
45283;DHT22;31023;44.994;1.796;2022-08-25T02:20:38;21.70;93.90
45283;DHT22;31023;44.994;1.796;2022-08-25T02:23:03;21.70;93.90
45283;DHT22;31023;44.994;1.796;2022-08-25T02:25:29;21.70;93.80
45283;DHT22;31023;44.994;1.796;2022-08-25T02:27:55;21.60;93.80
45283;DHT22;31023;44.994;1.796;2022-08-25T02:30:21;21.70;93.80
45283;DHT22;31023;44.994;1.796;2022-08-25T02:32:46;21.60;93.90
45283;DHT22;31023;44.994;1.796;2022-08-25T02:35:12;21.60;94.00
45283;DHT22;31023;44.994;1.796;2022-08-25T02:37:37;21.50;94.20
45283;DHT22;31023;44.994;1.796;2022-08-25T02:40:03;21.50;94.50
45283;DHT22;31023;44.994;1.796;2022-08-25T02:42:29;21.40;94.90
45283;DHT22;31023;44.994;1.796;2022-08-25T02:44:54;21.30;95.30
45283;DHT22;31023;44.994;1.796;2022-08-25T02:47:20;21.20;95.70
45283;DHT22;31023;44.994;1.796;2022-08-25T02:49:46;21.10;96.10
45283;DHT22;31023;44.994;1.796;2022-08-25T02:52:13;21.10;96.50
45283;DHT22;31023;44.994;1.796;2022-08-25T02:54:38;21.00;96.80
45283;DHT22;31023;44.994;1.796;2022-08-25T02:57:04;21.00;97.00
45283;DHT22;31023;44.994;1.796;2022-08-25T02:59:29;21.00;97.20
45283;DHT22;31023;44.994;1.796;2022-08-25T03:01:55;20.90;97.40
45283;DHT22;31023;44.994;1.796;2022-08-25T03:04:20;20.90;97.60
45283;DHT22;31023;44.994;1.796;2022-08-25T03:06:46;21.00;97.30
45283;DHT22;31023;44.994;1.796;2022-08-25T03:09:12;21.10;97.00
45283;DHT22;31023;44.994;1.796;2022-08-25T03:11:38;21.10;96.70
45283;DHT22;31023;44.994;1.796;2022-08-25T03:14:04;21.10;96.50
45283;DHT22;31023;44.994;1.796;2022-08-25T03:16:30;21.20;96.20
45283;DHT22;31023;44.994;1.796;2022-08-25T03:18:56;21.20;95.90
45283;DHT22;31023;44.994;1.796;2022-08-25T03:21:22;21.30;95.80
45283;DHT22;31023;44.994;1.796;2022-08-25T03:23:47;21.20;95.80
45283;DHT22;31023;44.994;1.796;2022-08-25T03:26:13;21.20;95.80
45283;DHT22;31023;44.994;1.796;2022-08-25T03:28:57;21.20;95.80
45283;DHT22;31023;44.994;1.796;2022-08-25T03:31:23;21.10;95.90
45283;DHT22;31023;44.994;1.796;2022-08-25T03:33:50;21.10;96.10
45283;DHT22;31023;44.994;1.796;2022-08-25T03:36:15;21.10;96.20
45283;DHT22;31023;44.994;1.796;2022-08-25T03:38:41;21.10;96.40
45283;DHT22;31023;44.994;1.796;2022-08-25T03:41:11;20.90;97.10
45283;DHT22;31023;44.994;1.796;2022-08-25T03:43:39;20.90;97.50
45283;DHT22;31023;44.994;1.796;2022-08-25T03:46:04;20.80;97.90
45283;DHT22;31023;44.994;1.796;2022-08-25T03:48:30;20.70;98.20
45283;DHT22;31023;44.994;1.796;2022-08-25T03:50:56;20.70;98.30
45283;DHT22;31023;44.994;1.796;2022-08-25T03:53:21;20.70;98.50
45283;DHT22;31023;44.994;1.796;2022-08-25T03:55:47;20.50;98.80
45283;DHT22;31023;44.994;1.796;2022-08-25T03:58:13;20.50;99.00
45283;DHT22;31023;44.994;1.796;2022-08-25T04:00:38;20.50;99.30
45283;DHT22;31023;44.994;1.796;2022-08-25T04:03:04;20.60;99.10
45283;DHT22;31023;44.994;1.796;2022-08-25T04:05:29;20.70;98.80
45283;DHT22;31023;44.994;1.796;2022-08-25T04:07:55;20.70;98.60
45283;DHT22;31023;44.994;1.796;2022-08-25T04:10:20;20.70;98.50
45283;DHT22;31023;44.994;1.796;2022-08-25T04:12:46;20.70;98.40
45283;DHT22;31023;44.994;1.796;2022-08-25T04:15:13;20.70;98.30
45283;DHT22;31023;44.994;1.796;2022-08-25T04:17:39;20.80;98.00
45283;DHT22;31023;44.994;1.796;2022-08-25T04:20:08;20.70;97.90
45283;DHT22;31023;44.994;1.796;2022-08-25T04:22:35;20.70;98.00
45283;DHT22;31023;44.994;1.796;2022-08-25T04:25:01;20.70;97.90
45283;DHT22;31023;44.994;1.796;2022-08-25T04:27:27;20.70;98.30
45283;DHT22;31023;44.994;1.796;2022-08-25T04:29:52;20.70;98.20
45283;DHT22;31023;44.994;1.796;2022-08-25T04:32:18;20.60;98.40
45283;DHT22;31023;44.994;1.796;2022-08-25T04:34:44;20.60;98.60
45283;DHT22;31023;44.994;1.796;2022-08-25T04:37:10;20.50;99.10
45283;DHT22;31023;44.994;1.796;2022-08-25T04:39:36;20.40;99.60
45283;DHT22;31023;44.994;1.796;2022-08-25T04:42:01;20.40;99.70
45283;DHT22;31023;44.994;1.796;2022-08-25T04:44:28;20.40;99.90
45283;DHT22;31023;44.994;1.796;2022-08-25T04:46:54;20.40;99.90
45283;DHT22;31023;44.994;1.796;2022-08-25T04:49:19;20.30;99.90
45283;DHT22;31023;44.994;1.796;2022-08-25T04:51:45;20.30;99.90
45283;DHT22;31023;44.994;1.796;2022-08-25T04:54:12;20.40;99.90
45283;DHT22;31023;44.994;1.796;2022-08-25T04:56:40;20.40;99.90
45283;DHT22;31023;44.994;1.796;2022-08-25T04:59:08;20.30;99.90
45283;DHT22;31023;44.994;1.796;2022-08-25T05:01:34;20.30;99.90
45283;DHT22;31023;44.994;1.796;2022-08-25T05:04:01;20.30;99.90
45283;DHT22;31023;44.994;1.796;2022-08-25T05:06:27;20.40;99.90
45283;DHT22;31023;44.994;1.796;2022-08-25T05:08:53;20.30;99.90
45283;DHT22;31023;44.994;1.796;2022-08-25T05:11:20;20.60;99.90
45283;DHT22;31023;44.994;1.796;2022-08-25T05:13:47;20.60;99.90
45283;DHT22;31023;44.994;1.796;2022-08-25T05:16:13;20.60;99.90
45283;DHT22;31023;44.994;1.796;2022-08-25T05:18:39;20.60;99.90
45283;DHT22;31023;44.994;1.796;2022-08-25T05:21:06;20.60;99.90
45283;DHT22;31023;44.994;1.796;2022-08-25T05:23:32;21.20;99.90
45283;DHT22;31023;44.994;1.796;2022-08-25T05:26:02;21.70;98.40
45283;DHT22;31023;44.994;1.796;2022-08-25T05:28:28;21.90;97.90
45283;DHT22;31023;44.994;1.796;2022-08-25T05:30:56;21.90;98.20
45283;DHT22;31023;44.994;1.796;2022-08-25T05:33:22;22.20;97.60
45283;DHT22;31023;44.994;1.796;2022-08-25T05:35:48;22.80;95.90
45283;DHT22;31023;44.994;1.796;2022-08-25T05:38:13;23.20;94.30
45283;DHT22;31023;44.994;1.796;2022-08-25T05:40:39;23.10;94.30
45283;DHT22;31023;44.994;1.796;2022-08-25T05:43:04;21.90;96.40
45283;DHT22;31023;44.994;1.796;2022-08-25T05:45:30;21.20;99.40
45283;DHT22;31023;44.994;1.796;2022-08-25T05:47:56;21.30;99.80
45283;DHT22;31023;44.994;1.796;2022-08-25T05:50:22;22.50;97.00
45283;DHT22;31023;44.994;1.796;2022-08-25T05:52:47;23.40;95.30
45283;DHT22;31023;44.994;1.796;2022-08-25T05:55:13;24.40;93.30
45283;DHT22;31023;44.994;1.796;2022-08-25T05:57:39;24.90;92.00
45283;DHT22;31023;44.994;1.796;2022-08-25T06:00:05;25.40;89.80
45283;DHT22;31023;44.994;1.796;2022-08-25T06:02:31;26.30;86.80
45283;DHT22;31023;44.994;1.796;2022-08-25T06:05:15;27.00;83.40
45283;DHT22;31023;44.994;1.796;2022-08-25T06:07:42;27.20;82.50
45283;DHT22;31023;44.994;1.796;2022-08-25T06:10:08;27.40;79.20
45283;DHT22;31023;44.994;1.796;2022-08-25T06:12:38;27.40;82.70
45283;DHT22;31023;44.994;1.796;2022-08-25T06:15:04;28.50;78.70
45283;DHT22;31023;44.994;1.796;2022-08-25T06:17:30;29.30;76.10
45283;DHT22;31023;44.994;1.796;2022-08-25T06:19:55;29.70;77.20
45283;DHT22;31023;44.994;1.796;2022-08-25T06:22:21;30.00;73.20
45283;DHT22;31023;44.994;1.796;2022-08-25T06:24:49;30.70;71.20
45283;DHT22;31023;44.994;1.796;2022-08-25T06:27:15;31.10;73.00
45283;DHT22;31023;44.994;1.796;2022-08-25T06:29:40;31.20;69.30
45283;DHT22;31023;44.994;1.796;2022-08-25T06:32:06;31.00;70.20
45283;DHT22;31023;44.994;1.796;2022-08-25T06:34:31;31.30;70.10
45283;DHT22;31023;44.994;1.796;2022-08-25T06:36:57;31.00;69.90
45283;DHT22;31023;44.994;1.796;2022-08-25T06:39:23;31.30;69.30
45283;DHT22;31023;44.994;1.796;2022-08-25T06:41:52;27.90;75.00
45283;DHT22;31023;44.994;1.796;2022-08-25T06:44:18;27.30;78.10
45283;DHT22;31023;44.994;1.796;2022-08-25T06:46:43;27.80;77.90
45283;DHT22;31023;44.994;1.796;2022-08-25T06:49:09;28.10;76.00
45283;DHT22;31023;44.994;1.796;2022-08-25T06:51:35;28.50;75.10
45283;DHT22;31023;44.994;1.796;2022-08-25T06:54:01;27.10;76.80
45283;DHT22;31023;44.994;1.796;2022-08-25T06:56:27;26.20;80.00
45283;DHT22;31023;44.994;1.796;2022-08-25T06:58:53;25.70;80.70
45283;DHT22;31023;44.994;1.796;2022-08-25T07:01:20;25.30;83.10
45283;DHT22;31023;44.994;1.796;2022-08-25T07:03:48;25.70;83.60
45283;DHT22;31023;44.994;1.796;2022-08-25T07:06:14;26.20;81.40
45283;DHT22;31023;44.994;1.796;2022-08-25T07:08:39;26.80;81.80
45283;DHT22;31023;44.994;1.796;2022-08-25T07:11:05;27.80;79.50
45283;DHT22;31023;44.994;1.796;2022-08-25T07:13:31;30.00;76.60
45283;DHT22;31023;44.994;1.796;2022-08-25T07:15:57;31.90;70.30
45283;DHT22;31023;44.994;1.796;2022-08-25T07:18:23;32.60;68.30
45283;DHT22;31023;44.994;1.796;2022-08-25T07:20:48;30.60;68.80
45283;DHT22;31023;44.994;1.796;2022-08-25T07:23:16;31.40;69.00
45283;DHT22;31023;44.994;1.796;2022-08-25T07:25:42;30.70;68.10
45283;DHT22;31023;44.994;1.796;2022-08-25T07:28:07;30.60;68.60
45283;DHT22;31023;44.994;1.796;2022-08-25T07:30:33;29.50;70.20
45283;DHT22;31023;44.994;1.796;2022-08-25T07:32:59;27.60;75.10
45283;DHT22;31023;44.994;1.796;2022-08-25T07:35:24;26.30;78.80
45283;DHT22;31023;44.994;1.796;2022-08-25T07:37:53;26.80;78.90
45283;DHT22;31023;44.994;1.796;2022-08-25T07:40:30;26.40;79.90
45283;DHT22;31023;44.994;1.796;2022-08-25T07:42:57;27.20;78.00
45283;DHT22;31023;44.994;1.796;2022-08-25T07:45:24;29.00;73.50
45283;DHT22;31023;44.994;1.796;2022-08-25T07:48:02;31.50;68.80
45283;DHT22;31023;44.994;1.796;2022-08-25T07:50:28;30.00;67.60
45283;DHT22;31023;44.994;1.796;2022-08-25T07:52:54;31.20;66.50
45283;DHT22;31023;44.994;1.796;2022-08-25T07:55:19;31.90;64.60
45283;DHT22;31023;44.994;1.796;2022-08-25T07:57:45;33.00;61.80
45283;DHT22;31023;44.994;1.796;2022-08-25T08:00:12;33.00;61.40
45283;DHT22;31023;44.994;1.796;2022-08-25T08:02:40;31.70;62.10
45283;DHT22;31023;44.994;1.796;2022-08-25T08:05:06;30.10;65.40
45283;DHT22;31023;44.994;1.796;2022-08-25T08:07:32;32.70;63.10
45283;DHT22;31023;44.994;1.796;2022-08-25T08:09:57;34.00;59.80
45283;DHT22;31023;44.994;1.796;2022-08-25T08:12:23;34.40;58.70
45283;DHT22;31023;44.994;1.796;2022-08-25T08:14:49;34.00;58.40
45283;DHT22;31023;44.994;1.796;2022-08-25T08:17:15;33.80;57.60
45283;DHT22;31023;44.994;1.796;2022-08-25T08:19:41;34.50;58.20
45283;DHT22;31023;44.994;1.796;2022-08-25T08:22:07;31.10;62.90
45283;DHT22;31023;44.994;1.796;2022-08-25T08:24:36;33.60;58.60
45283;DHT22;31023;44.994;1.796;2022-08-25T08:27:04;35.00;56.90
45283;DHT22;31023;44.994;1.796;2022-08-25T08:29:29;36.50;54.60
45283;DHT22;31023;44.994;1.796;2022-08-25T08:31:55;36.40;54.50
45283;DHT22;31023;44.994;1.796;2022-08-25T08:34:21;36.40;53.30
45283;DHT22;31023;44.994;1.796;2022-08-25T08:36:48;35.80;54.70
45283;DHT22;31023;44.994;1.796;2022-08-25T08:39:13;36.50;54.90
45283;DHT22;31023;44.994;1.796;2022-08-25T08:41:52;37.50;52.70
45283;DHT22;31023;44.994;1.796;2022-08-25T08:52:49;37.80;50.40
45283;DHT22;31023;44.994;1.796;2022-08-25T08:55:27;39.10;50.30
45283;DHT22;31023;44.994;1.796;2022-08-25T08:57:56;38.50;50.50
45283;DHT22;31023;44.994;1.796;2022-08-25T09:00:21;39.80;49.90
45283;DHT22;31023;44.994;1.796;2022-08-25T09:02:58;38.50;48.70
45283;DHT22;31023;44.994;1.796;2022-08-25T09:08:23;33.80;56.00
45283;DHT22;31023;44.994;1.796;2022-08-25T09:10:53;33.40;57.60
45283;DHT22;31023;44.994;1.796;2022-08-25T09:16:08;35.00;56.50
45283;DHT22;31023;44.994;1.796;2022-08-25T09:19:03;36.00;54.80
45283;DHT22;31023;44.994;1.796;2022-08-25T09:21:35;37.10;53.10
45283;DHT22;31023;44.994;1.796;2022-08-25T09:24:16;37.70;52.50
45283;DHT22;31023;44.994;1.796;2022-08-25T09:29:23;38.30;51.10
45283;DHT22;31023;44.994;1.796;2022-08-25T09:31:52;36.20;52.60
45283;DHT22;31023;44.994;1.796;2022-08-25T09:34:21;36.60;53.10
45283;DHT22;31023;44.994;1.796;2022-08-25T09:36:47;34.50;53.70
45283;DHT22;31023;44.994;1.796;2022-08-25T09:39:17;33.60;56.00
45283;DHT22;31023;44.994;1.796;2022-08-25T09:44:19;35.60;55.80
45283;DHT22;31023;44.994;1.796;2022-08-25T09:47:03;34.00;55.80
45283;DHT22;31023;44.994;1.796;2022-08-25T09:54:45;38.10;51.10
45283;DHT22;31023;44.994;1.796;2022-08-25T09:57:26;38.10;51.40
45283;DHT22;31023;44.994;1.796;2022-08-25T09:59:52;37.20;51.80
45283;DHT22;31023;44.994;1.796;2022-08-25T10:04:46;37.90;51.10
45283;DHT22;31023;44.994;1.796;2022-08-25T10:10:17;36.40;53.30
45283;DHT22;31023;44.994;1.796;2022-08-25T10:12:46;35.90;54.00
45283;DHT22;31023;44.994;1.796;2022-08-25T10:15:19;35.00;54.20
45283;DHT22;31023;44.994;1.796;2022-08-25T10:17:45;34.30;56.00
45283;DHT22;31023;44.994;1.796;2022-08-25T10:20:13;32.20;58.80
45283;DHT22;31023;44.994;1.796;2022-08-25T10:22:41;32.30;59.60
45283;DHT22;31023;44.994;1.796;2022-08-25T10:25:08;32.30;59.90
45283;DHT22;31023;44.994;1.796;2022-08-25T10:30:20;32.40;60.60
45283;DHT22;31023;44.994;1.796;2022-08-25T10:35:15;31.60;61.70
45283;DHT22;31023;44.994;1.796;2022-08-25T10:37:59;31.90;60.60
45283;DHT22;31023;44.994;1.796;2022-08-25T10:40:30;31.30;61.40
45283;DHT22;31023;44.994;1.796;2022-08-25T10:45:34;31.90;61.90
45283;DHT22;31023;44.994;1.796;2022-08-25T10:55:26;31.40;62.20
45283;DHT22;31023;44.994;1.796;2022-08-25T10:57:56;31.50;62.30
45283;DHT22;31023;44.994;1.796;2022-08-25T11:00:25;31.40;62.30
45283;DHT22;31023;44.994;1.796;2022-08-25T11:05:31;32.30;62.80
45283;DHT22;31023;44.994;1.796;2022-08-25T11:10:46;31.80;63.20
45283;DHT22;31023;44.994;1.796;2022-08-25T11:13:16;31.40;63.00
45283;DHT22;31023;44.994;1.796;2022-08-25T11:15:53;31.70;63.30
45283;DHT22;31023;44.994;1.796;2022-08-25T11:18:19;32.10;62.30
45283;DHT22;31023;44.994;1.796;2022-08-25T11:20:58;31.50;62.80
45283;DHT22;31023;44.994;1.796;2022-08-25T11:23:39;31.60;63.80
45283;DHT22;31023;44.994;1.796;2022-08-25T11:26:16;31.50;64.00
45283;DHT22;31023;44.994;1.796;2022-08-25T11:29:02;31.70;62.60
45283;DHT22;31023;44.994;1.796;2022-08-25T11:31:29;31.10;63.80
45283;DHT22;31023;44.994;1.796;2022-08-25T11:33:55;30.80;63.00
45283;DHT22;31023;44.994;1.796;2022-08-25T11:36:29;30.70;64.20
45283;DHT22;31023;44.994;1.796;2022-08-25T11:49:29;31.00;64.40
45283;DHT22;31023;44.994;1.796;2022-08-25T11:51:59;30.60;64.90
45283;DHT22;31023;44.994;1.796;2022-08-25T11:54:26;30.60;65.20
45283;DHT22;31023;44.994;1.796;2022-08-25T12:13:41;30.90;63.00
45283;DHT22;31023;44.994;1.796;2022-08-25T12:18:53;31.30;64.40
45283;DHT22;31023;44.994;1.796;2022-08-25T12:21:38;31.00;64.00
45283;DHT22;31023;44.994;1.796;2022-08-25T12:24:08;31.10;65.20
45283;DHT22;31023;44.994;1.796;2022-08-25T12:31:30;30.60;65.10
45283;DHT22;31023;44.994;1.796;2022-08-25T12:34:15;30.50;63.20
45283;DHT22;31023;44.994;1.796;2022-08-25T12:36:55;30.40;62.90
45283;DHT22;31023;44.994;1.796;2022-08-25T12:39:22;30.50;63.30
45283;DHT22;31023;44.994;1.796;2022-08-25T12:42:00;30.40;63.10
45283;DHT22;31023;44.994;1.796;2022-08-25T12:49:33;30.70;64.30
45283;DHT22;31023;44.994;1.796;2022-08-25T12:52:12;30.70;63.90
45283;DHT22;31023;44.994;1.796;2022-08-25T12:54:42;30.80;65.20
45283;DHT22;31023;44.994;1.796;2022-08-25T12:59:55;30.70;64.40
45283;DHT22;31023;44.994;1.796;2022-08-25T13:10:40;31.30;66.40
45283;DHT22;31023;44.994;1.796;2022-08-25T13:15:56;31.10;64.40
45283;DHT22;31023;44.994;1.796;2022-08-25T13:18:24;31.00;64.60
45283;DHT22;31023;44.994;1.796;2022-08-25T13:23:28;31.20;64.80
45283;DHT22;31023;44.994;1.796;2022-08-25T13:25:55;31.00;64.40
45283;DHT22;31023;44.994;1.796;2022-08-25T13:28:23;31.00;65.00
45283;DHT22;31023;44.994;1.796;2022-08-25T13:31:00;31.10;65.50
45283;DHT22;31023;44.994;1.796;2022-08-25T13:33:26;31.20;65.10
45283;DHT22;31023;44.994;1.796;2022-08-25T13:35:53;31.30;64.50
45283;DHT22;31023;44.994;1.796;2022-08-25T13:38:37;31.20;65.10
45283;DHT22;31023;44.994;1.796;2022-08-25T13:41:03;31.30;65.40
45283;DHT22;31023;44.994;1.796;2022-08-25T13:43:29;31.00;63.80
45283;DHT22;31023;44.994;1.796;2022-08-25T13:45:54;30.80;64.00
45283;DHT22;31023;44.994;1.796;2022-08-25T13:48:36;30.80;64.30
45283;DHT22;31023;44.994;1.796;2022-08-25T13:51:05;30.90;62.20
45283;DHT22;31023;44.994;1.796;2022-08-25T13:53:32;30.80;63.20
45283;DHT22;31023;44.994;1.796;2022-08-25T13:55:58;31.00;61.50
45283;DHT22;31023;44.994;1.796;2022-08-25T13:58:31;31.30;62.50
45283;DHT22;31023;44.994;1.796;2022-08-25T14:03:32;31.40;62.30
45283;DHT22;31023;44.994;1.796;2022-08-25T14:08:32;31.40;61.60
45283;DHT22;31023;44.994;1.796;2022-08-25T14:11:04;31.50;61.40
45283;DHT22;31023;44.994;1.796;2022-08-25T14:13:30;31.30;61.70
45283;DHT22;31023;44.994;1.796;2022-08-25T14:16:05;31.60;61.60
45283;DHT22;31023;44.994;1.796;2022-08-25T14:18:31;31.30;62.40
45283;DHT22;31023;44.994;1.796;2022-08-25T14:20:57;31.30;62.50
45283;DHT22;31023;44.994;1.796;2022-08-25T14:23:24;31.30;62.70
45283;DHT22;31023;44.994;1.796;2022-08-25T14:25:52;31.20;62.40
45283;DHT22;31023;44.994;1.796;2022-08-25T14:28:19;31.40;62.80
45283;DHT22;31023;44.994;1.796;2022-08-25T14:30:46;31.60;62.90
45283;DHT22;31023;44.994;1.796;2022-08-25T14:33:14;31.30;62.30
45283;DHT22;31023;44.994;1.796;2022-08-25T14:35:41;31.10;62.80
45283;DHT22;31023;44.994;1.796;2022-08-25T14:38:08;31.40;63.30
45283;DHT22;31023;44.994;1.796;2022-08-25T14:40:34;31.60;62.30
45283;DHT22;31023;44.994;1.796;2022-08-25T14:43:00;31.50;62.10
45283;DHT22;31023;44.994;1.796;2022-08-25T14:45:26;31.70;61.80
45283;DHT22;31023;44.994;1.796;2022-08-25T14:47:51;32.00;62.10
45283;DHT22;31023;44.994;1.796;2022-08-25T14:50:17;32.00;62.50
45283;DHT22;31023;44.994;1.796;2022-08-25T14:52:43;31.70;62.90
45283;DHT22;31023;44.994;1.796;2022-08-25T14:55:09;31.40;62.70
45283;DHT22;31023;44.994;1.796;2022-08-25T14:57:35;31.40;64.20
45283;DHT22;31023;44.994;1.796;2022-08-25T15:00:01;31.20;63.80
45283;DHT22;31023;44.994;1.796;2022-08-25T15:02:28;31.20;64.20
45283;DHT22;31023;44.994;1.796;2022-08-25T15:04:58;31.00;64.60
45283;DHT22;31023;44.994;1.796;2022-08-25T15:07:24;30.80;64.40
45283;DHT22;31023;44.994;1.796;2022-08-25T15:10:09;30.90;63.90
45283;DHT22;31023;44.994;1.796;2022-08-25T15:12:34;31.10;65.00
45283;DHT22;31023;44.994;1.796;2022-08-25T15:15:00;30.90;63.60
45283;DHT22;31023;44.994;1.796;2022-08-25T15:17:26;30.80;63.50
45283;DHT22;31023;44.994;1.796;2022-08-25T15:19:52;30.70;63.50
45283;DHT22;31023;44.994;1.796;2022-08-25T15:22:17;30.50;64.30
45283;DHT22;31023;44.994;1.796;2022-08-25T15:24:43;30.40;64.80
45283;DHT22;31023;44.994;1.796;2022-08-25T15:27:08;30.20;65.20
45283;DHT22;31023;44.994;1.796;2022-08-25T15:29:35;29.80;64.90
45283;DHT22;31023;44.994;1.796;2022-08-25T15:32:01;29.70;64.70
45283;DHT22;31023;44.994;1.796;2022-08-25T15:34:28;29.80;65.10
45283;DHT22;31023;44.994;1.796;2022-08-25T15:36:54;29.80;65.50
45283;DHT22;31023;44.994;1.796;2022-08-25T15:39:19;29.80;65.20
45283;DHT22;31023;44.994;1.796;2022-08-25T15:41:46;30.00;65.30
45283;DHT22;31023;44.994;1.796;2022-08-25T15:44:13;30.10;65.60
45283;DHT22;31023;44.994;1.796;2022-08-25T15:46:38;30.20;65.40
45283;DHT22;31023;44.994;1.796;2022-08-25T15:49:04;30.30;63.80
45283;DHT22;31023;44.994;1.796;2022-08-25T15:51:30;30.40;64.60
45283;DHT22;31023;44.994;1.796;2022-08-25T15:53:56;30.30;64.00
45283;DHT22;31023;44.994;1.796;2022-08-25T15:56:22;30.30;64.30
45283;DHT22;31023;44.994;1.796;2022-08-25T15:58:48;29.60;64.50
45283;DHT22;31023;44.994;1.796;2022-08-25T16:01:14;29.50;64.80
45283;DHT22;31023;44.994;1.796;2022-08-25T16:03:40;29.40;65.80
45283;DHT22;31023;44.994;1.796;2022-08-25T16:06:05;29.20;66.10
45283;DHT22;31023;44.994;1.796;2022-08-25T16:08:31;29.10;66.40
45283;DHT22;31023;44.994;1.796;2022-08-25T16:10:57;29.00;66.70
45283;DHT22;31023;44.994;1.796;2022-08-25T16:13:23;29.10;66.70
45283;DHT22;31023;44.994;1.796;2022-08-25T16:15:49;29.00;67.10
45283;DHT22;31023;44.994;1.796;2022-08-25T16:18:14;28.90;66.90
45283;DHT22;31023;44.994;1.796;2022-08-25T16:20:44;28.80;67.50
45283;DHT22;31023;44.994;1.796;2022-08-25T16:23:11;28.90;67.70
45283;DHT22;31023;44.994;1.796;2022-08-25T16:25:38;28.80;68.10
45283;DHT22;31023;44.994;1.796;2022-08-25T16:28:03;28.70;68.80
45283;DHT22;31023;44.994;1.796;2022-08-25T16:30:29;28.60;69.30
45283;DHT22;31023;44.994;1.796;2022-08-25T16:32:55;28.40;69.80
45283;DHT22;31023;44.994;1.796;2022-08-25T16:35:20;28.30;70.50
45283;DHT22;31023;44.994;1.796;2022-08-25T16:37:46;27.90;71.70
45283;DHT22;31023;44.994;1.796;2022-08-25T16:40:13;28.00;71.90
45283;DHT22;31023;44.994;1.796;2022-08-25T16:42:39;27.70;72.10
45283;DHT22;31023;44.994;1.796;2022-08-25T16:45:04;27.60;72.70
45283;DHT22;31023;44.994;1.796;2022-08-25T16:47:30;27.50;73.00
45283;DHT22;31023;44.994;1.796;2022-08-25T16:50:01;27.40;73.40
45283;DHT22;31023;44.994;1.796;2022-08-25T16:52:27;27.20;74.20
45283;DHT22;31023;44.994;1.796;2022-08-25T16:55:11;27.30;74.70
45283;DHT22;31023;44.994;1.796;2022-08-25T16:57:38;27.50;74.50
45283;DHT22;31023;44.994;1.796;2022-08-25T17:00:04;27.40;74.60
45283;DHT22;31023;44.994;1.796;2022-08-25T17:02:30;27.50;75.10
45283;DHT22;31023;44.994;1.796;2022-08-25T17:04:56;27.50;74.60
45283;DHT22;31023;44.994;1.796;2022-08-25T17:07:22;27.40;74.50
45283;DHT22;31023;44.994;1.796;2022-08-25T17:09:47;27.10;75.40
45283;DHT22;31023;44.994;1.796;2022-08-25T17:12:13;27.10;75.00
45283;DHT22;31023;44.994;1.796;2022-08-25T17:14:39;27.00;75.90
45283;DHT22;31023;44.994;1.796;2022-08-25T17:17:05;27.20;75.60
45283;DHT22;31023;44.994;1.796;2022-08-25T17:19:30;27.10;76.20
45283;DHT22;31023;44.994;1.796;2022-08-25T17:21:57;26.90;76.90
45283;DHT22;31023;44.994;1.796;2022-08-25T17:24:22;26.90;77.00
45283;DHT22;31023;44.994;1.796;2022-08-25T17:26:48;27.00;77.50
45283;DHT22;31023;44.994;1.796;2022-08-25T17:29:15;27.10;77.00